Time,TemperatureF,DewpointF,PressureIn,WindDirection,WindDirectionDegrees,WindSpeedMPH,WindSpeedGustMPH,Humidity,HourlyPrecipIn,Conditions,Clouds,dailyrainin,SoftwareType,DateUTC
2013-10-15 00:00:00,71.9,70.1,29.88,South,178,0.0,1.0,94,0.00,,,0.10,Wunderground v.1.15,2013-10-15 05:00:00,
2013-10-15 00:10:00,71.8,70.0,29.88,South,178,0.0,1.0,94,0.00,,,0.10,Wunderground v.1.15,2013-10-15 05:10:00,
2013-10-15 00:20:00,71.7,70.2,29.88,South,178,0.0,1.0,95,0.00,,,0.00,Wunderground v.1.15,2013-10-15 05:20:00,
2013-10-15 00:30:00,71.7,70.2,29.89,South,178,0.0,1.0,95,0.00,,,0.00,Wunderground v.1.15,2013-10-15 05:30:00,
2013-10-15 00:40:00,71.6,70.1,29.88,South,178,0.0,1.0,95,0.00,,,0.00,Wunderground v.1.15,2013-10-15 05:40:00,
2013-10-15 00:50:00,71.4,69.9,29.88,South,178,0.0,1.0,95,0.00,,,0.00,Wunderground v.1.15,2013-10-15 05:50:00,
2013-10-15 01:00:00,71.4,69.9,29.89,South,178,0.0,1.0,95,0.00,,,0.00,Wunderground v.1.15,2013-10-15 06:00:00,
2013-10-15 01:10:00,71.4,69.9,29.89,South,178,0.0,1.0,95,0.00,,,0.00,Wunderground v.1.15,2013-10-15 06:10:00,
2013-10-15 01:20:00,71.3,69.8,29.89,South,178,0.0,1.0,95,0.00,,,0.00,Wunderground v.1.15,2013-10-15 06:20:00,
2013-10-15 01:30:00,71.3,69.8,29.89,South,178,0.0,1.0,95,0.00,,,0.00,Wunderground v.1.15,2013-10-15 06:30:00,
2013-10-15 01:40:00,71.2,69.7,29.89,South,178,0.0,1.0,95,0.00,,,0.00,Wunderground v.1.15,2013-10-15 06:40:00,
2013-10-15 01:50:00,71.2,69.7,29.89,South,178,0.0,1.0,95,0.00,,,0.00,Wunderground v.1.15,2013-10-15 06:50:00,
2013-10-15 02:00:00,71.2,70.0,29.89,South,178,0.0,1.0,96,0.00,,,0.00,Wunderground v.1.15,2013-10-15 07:00:00,
2013-10-15 02:10:00,71.2,70.0,29.89,South,178,0.0,1.0,96,0.00,,,0.00,Wunderground v.1.15,2013-10-15 07:10:00,
2013-10-15 02:20:00,71.2,70.0,29.89,South,178,0.0,1.0,96,0.00,,,0.00,Wunderground v.1.15,2013-10-15 07:20:00,
2013-10-15 02:30:00,71.2,70.0,29.89,South,178,0.0,1.0,96,0.00,,,0.00,Wunderground v.1.15,2013-10-15 07:30:00,
2013-10-15 02:40:00,71.1,69.9,29.88,South,178,0.0,1.0,96,0.00,,,0.00,Wunderground v.1.15,2013-10-15 07:40:00,
2013-10-15 02:50:00,71.0,69.8,29.88,South,178,0.0,1.0,96,0.00,,,0.01,Wunderground v.1.15,2013-10-15 07:50:00,
2013-10-15 03:00:00,71.0,69.8,29.88,South,178,0.0,1.0,96,0.00,,,0.01,Wunderground v.1.15,2013-10-15 08:00:00,
2013-10-15 03:10:00,70.9,69.7,29.87,South,178,0.0,1.0,96,0.00,,,0.01,Wunderground v.1.15,2013-10-15 08:10:00,
2013-10-15 03:20:00,70.8,69.6,29.86,South,178,0.0,1.0,96,0.00,,,0.01,Wunderground v.1.15,2013-10-15 08:20:00,
2013-10-15 03:30:00,70.8,69.6,29.86,South,178,0.0,1.0,96,0.00,,,0.01,Wunderground v.1.15,2013-10-15 08:30:00,
2013-10-15 03:40:00,70.8,69.6,29.85,South,178,0.0,1.0,96,0.00,,,0.01,Wunderground v.1.15,2013-10-15 08:40:00,
2013-10-15 03:50:00,70.9,69.7,29.85,South,178,0.0,1.0,96,0.00,,,0.01,Wunderground v.1.15,2013-10-15 08:50:00,
2013-10-15 04:00:00,71.0,69.8,29.84,South,178,0.0,1.0,96,0.00,,,0.01,Wunderground v.1.15,2013-10-15 09:00:00,
2013-10-15 04:10:00,71.0,69.8,29.84,South,178,0.0,1.0,96,0.00,,,0.01,Wunderground v.1.15,2013-10-15 09:10:00,
2013-10-15 04:20:00,71.1,69.9,29.84,South,178,1.0,1.0,96,0.00,,,0.01,Wunderground v.1.15,2013-10-15 09:20:00,
2013-10-15 04:30:00,71.1,69.9,29.84,South,178,0.0,1.0,96,0.00,,,0.01,Wunderground v.1.15,2013-10-15 09:30:00,
2013-10-15 04:40:00,71.2,70.0,29.84,South,178,0.0,1.0,96,0.00,,,0.01,Wunderground v.1.15,2013-10-15 09:40:00,
2013-10-15 04:50:00,71.2,70.0,29.83,South,178,0.0,1.0,96,0.00,,,0.01,Wunderground v.1.15,2013-10-15 09:50:00,
2013-10-15 05:00:00,71.2,70.0,29.83,South,178,0.0,1.0,96,0.00,,,0.01,Wunderground v.1.15,2013-10-15 10:00:00,
2013-10-15 05:10:00,71.2,70.0,29.84,South,178,0.0,1.0,96,0.00,,,0.01,Wunderground v.1.15,2013-10-15 10:10:00,
2013-10-15 05:20:00,71.1,69.9,29.85,South,178,0.0,1.0,96,0.00,,,0.01,Wunderground v.1.15,2013-10-15 10:20:00,
2013-10-15 05:30:00,71.1,69.9,29.85,South,178,0.0,1.0,96,0.00,,,0.01,Wunderground v.1.15,2013-10-15 10:30:00,
2013-10-15 05:40:00,71.0,69.8,29.85,South,178,0.0,1.0,96,0.00,,,0.01,Wunderground v.1.15,2013-10-15 10:40:00,
2013-10-15 05:50:00,71.1,69.9,29.85,South,178,0.0,1.0,96,0.00,,,0.01,Wunderground v.1.15,2013-10-15 10:50:00,
2013-10-15 06:00:00,71.0,69.8,29.86,South,178,0.0,1.0,96,0.00,,,0.01,Wunderground v.1.15,2013-10-15 11:00:00,
2013-10-15 06:10:00,71.0,69.8,29.86,South,178,0.0,1.0,96,0.00,,,0.01,Wunderground v.1.15,2013-10-15 11:10:00,
2013-10-15 06:20:00,71.1,69.9,29.86,South,178,0.0,1.0,96,0.00,,,0.01,Wunderground v.1.15,2013-10-15 11:20:00,
2013-10-15 06:30:00,71.1,69.9,29.86,South,178,0.0,1.0,96,0.00,,,0.01,Wunderground v.1.15,2013-10-15 11:30:00,
2013-10-15 06:40:00,71.2,70.0,29.87,South,178,0.0,1.0,96,0.00,,,0.01,Wunderground v.1.15,2013-10-15 11:40:00,
2013-10-15 06:50:00,71.2,70.0,29.87,South,178,0.0,1.0,96,0.00,,,0.01,Wunderground v.1.15,2013-10-15 11:50:00,
2013-10-15 07:00:00,71.3,70.1,29.87,South,178,0.0,1.0,96,0.00,,,0.01,Wunderground v.1.15,2013-10-15 12:00:00,
2013-10-15 07:10:00,71.3,70.1,29.87,South,178,0.0,1.0,96,0.00,,,0.01,Wunderground v.1.15,2013-10-15 12:10:00,
2013-10-15 07:20:00,71.3,70.1,29.87,South,178,0.0,1.0,96,0.00,,,0.01,Wunderground v.1.15,2013-10-15 12:20:00,
2013-10-15 07:30:00,71.3,70.1,29.87,South,178,0.0,1.0,96,0.00,,,0.01,Wunderground v.1.15,2013-10-15 12:30:00,
2013-10-15 07:40:00,71.3,70.1,29.87,South,178,0.0,1.0,96,0.00,,,0.01,Wunderground v.1.15,2013-10-15 12:40:00,
2013-10-15 07:50:00,71.3,70.1,29.87,South,178,0.0,1.0,96,0.00,,,0.01,Wunderground v.1.15,2013-10-15 12:50:00,
2013-10-15 08:00:00,71.3,70.1,29.87,South,178,0.0,1.0,96,0.23,,,0.10,Wunderground v.1.15,2013-10-15 13:00:00,
2013-10-15 08:10:00,71.2,70.0,29.87,South,178,0.0,1.0,96,0.05,,,0.10,Wunderground v.1.15,2013-10-15 13:10:00,
2013-10-15 08:20:00,71.2,70.0,29.88,South,178,0.0,1.0,96,0.00,,,0.10,Wunderground v.1.15,2013-10-15 13:20:00,
2013-10-15 08:30:00,71.2,70.3,29.88,South,178,0.0,1.0,97,0.00,,,0.10,Wunderground v.1.15,2013-10-15 13:30:00,
2013-10-15 08:40:00,71.3,70.4,29.88,South,178,0.0,1.0,97,0.00,,,0.11,Wunderground v.1.15,2013-10-15 13:40:00,
2013-10-15 08:50:00,71.2,70.3,29.88,South,178,0.0,1.0,97,0.00,,,0.11,Wunderground v.1.15,2013-10-15 13:50:00,
2013-10-15 09:00:00,71.3,70.4,29.88,South,178,0.0,1.0,97,0.00,,,0.11,Wunderground v.1.15,2013-10-15 14:00:00,
2013-10-15 09:10:00,71.2,70.3,29.89,South,178,0.0,1.0,97,0.00,,,0.11,Wunderground v.1.15,2013-10-15 14:10:00,
2013-10-15 09:20:00,71.2,70.3,29.89,South,178,0.0,1.0,97,0.00,,,0.11,Wunderground v.1.15,2013-10-15 14:20:00,
2013-10-15 09:30:00,71.4,70.5,29.90,South,178,0.0,1.0,97,0.00,,,0.11,Wunderground v.1.15,2013-10-15 14:30:00,
2013-10-15 09:40:00,70.0,68.5,29.91,NNW,333,2.0,2.0,95,0.24,,,0.13,Wunderground v.1.15,2013-10-15 14:40:00,
2013-10-15 09:50:00,69.1,67.6,29.92,NNW,347,5.0,5.0,95,0.07,,,0.14,Wunderground v.1.15,2013-10-15 14:50:00,
2013-10-15 10:00:00,68.6,67.1,29.92,NNW,337,3.0,4.0,95,1.49,,,0.27,Wunderground v.1.15,2013-10-15 15:00:00,
2013-10-15 10:10:00,68.3,67.1,29.93,NNW,341,3.0,3.0,96,0.15,,,0.33,Wunderground v.1.15,2013-10-15 15:10:00,
2013-10-15 10:20:00,68.3,67.1,29.93,NNW,341,1.0,1.0,96,0.22,,,0.41,Wunderground v.1.15,2013-10-15 15:20:00,
2013-10-15 10:30:00,68.4,67.5,29.92,NE,36,0.0,1.0,97,0.06,,,0.42,Wunderground v.1.15,2013-10-15 15:30:00,
2013-10-15 10:40:00,68.4,67.5,29.92,NE,36,0.0,1.0,97,0.04,,,0.43,Wunderground v.1.15,2013-10-15 15:40:00,
2013-10-15 10:50:00,68.6,67.7,29.91,NE,45,0.0,1.0,97,0.08,,,0.44,Wunderground v.1.15,2013-10-15 15:50:00,
2013-10-15 11:00:00,68.8,67.9,29.91,NE,45,0.0,1.0,97,0.04,,,0.45,Wunderground v.1.15,2013-10-15 16:00:00,
2013-10-15 11:10:00,69.0,68.1,29.91,NE,52,0.0,1.0,97,0.04,,,0.45,Wunderground v.1.15,2013-10-15 16:10:00,
2013-10-15 11:20:00,69.0,68.1,29.91,NE,52,0.0,1.0,97,0.00,,,0.45,Wunderground v.1.15,2013-10-15 16:20:00,
2013-10-15 11:30:00,69.4,68.5,29.90,NE,52,0.0,1.0,97,0.00,,,0.45,Wunderground v.1.15,2013-10-15 16:30:00,
2013-10-15 11:40:00,69.5,68.6,29.91,NE,52,0.0,1.0,97,0.00,,,0.45,Wunderground v.1.15,2013-10-15 16:40:00,
2013-10-15 11:50:00,69.6,68.7,29.91,NE,52,0.0,1.0,97,0.00,,,0.45,Wunderground v.1.15,2013-10-15 16:50:00,
2013-10-15 12:00:00,69.7,68.8,29.91,NE,52,0.0,1.0,97,0.00,,,0.45,Wunderground v.1.15,2013-10-15 17:00:00,
2013-10-15 12:10:00,69.8,68.6,29.91,NE,52,0.0,1.0,96,0.00,,,0.45,Wunderground v.1.15,2013-10-15 17:10:00,
2013-10-15 12:20:00,69.7,68.5,29.92,ENE,64,0.0,1.0,96,0.30,,,0.48,Wunderground v.1.15,2013-10-15 17:20:00,
2013-10-15 12:30:00,68.5,67.0,29.92,NNW,344,2.0,9.0,95,0.20,,,0.52,Wunderground v.1.15,2013-10-15 17:30:00,
2013-10-15 12:40:00,66.6,65.1,29.92,NNW,342,5.0,5.0,95,0.05,,,0.52,Wunderground v.1.15,2013-10-15 17:40:00,
2013-10-15 12:50:00,65.4,63.9,29.92,North,355,5.0,8.0,95,0.00,,,0.52,Wunderground v.1.15,2013-10-15 17:50:00,
2013-10-15 13:00:00,64.6,63.1,29.92,North,355,4.0,4.0,95,0.00,,,0.53,Wunderground v.1.15,2013-10-15 18:00:00,
2013-10-15 13:10:00,63.8,62.3,29.92,North,355,5.0,8.0,95,0.00,,,0.53,Wunderground v.1.15,2013-10-15 18:10:00,
2013-10-15 13:20:00,62.9,61.4,29.93,NNE,13,6.0,6.0,95,0.00,,,0.54,Wunderground v.1.15,2013-10-15 18:20:00,
2013-10-15 13:30:00,62.2,60.8,29.91,NNE,13,7.0,7.0,95,0.20,,,0.57,Wunderground v.1.15,2013-10-15 18:30:00,
2013-10-15 13:40:00,61.6,60.4,29.91,NNE,30,8.0,13.0,96,0.08,,,0.58,Wunderground v.1.15,2013-10-15 18:40:00,
2013-10-15 13:50:00,61.4,60.2,29.91,North,355,8.0,10.0,96,0.12,,,0.61,Wunderground v.1.15,2013-10-15 18:50:00,
2013-10-15 14:00:00,61.0,59.9,29.91,NNE,15,8.0,11.0,96,0.09,,,0.62,Wunderground v.1.15,2013-10-15 19:00:00,
2013-10-15 14:10:00,60.1,58.7,29.91,North,9,8.0,8.0,95,0.06,,,0.63,Wunderground v.1.15,2013-10-15 19:10:00,
2013-10-15 14:20:00,59.2,57.8,29.92,North,360,7.0,11.0,95,0.00,,,0.63,Wunderground v.1.15,2013-10-15 19:20:00,
2013-10-15 14:30:00,58.3,56.9,29.92,North,11,8.0,10.0,95,0.00,,,0.63,Wunderground v.1.15,2013-10-15 19:30:00,
2013-10-15 14:40:00,57.7,56.3,29.91,NW,326,9.0,9.0,95,0.16,,,0.67,Wunderground v.1.15,2013-10-15 19:40:00,
2013-10-15 14:50:00,57.7,56.6,29.92,North,5,8.0,8.0,96,0.11,,,0.68,Wunderground v.1.15,2013-10-15 19:50:00,
2013-10-15 15:00:00,57.5,56.4,29.92,North,360,7.0,7.0,96,0.06,,,0.69,Wunderground v.1.15,2013-10-15 20:00:00,
2013-10-15 15:10:00,57.2,56.1,29.92,North,355,8.0,8.0,96,0.04,,,0.70,Wunderground v.1.15,2013-10-15 20:10:00,
2013-10-15 15:20:00,56.6,55.5,29.92,North,360,8.0,8.0,96,0.04,,,0.70,Wunderground v.1.15,2013-10-15 20:20:00,
2013-10-15 15:30:00,56.4,55.3,29.92,NNE,17,8.0,8.0,96,0.00,,,0.71,Wunderground v.1.15,2013-10-15 20:30:00,
2013-10-15 15:40:00,56.1,55.0,29.92,North,360,7.0,7.0,96,0.00,,,0.71,Wunderground v.1.15,2013-10-15 20:40:00,
2013-10-15 15:50:00,55.7,54.3,29.91,NNE,26,6.0,6.0,95,0.04,,,0.72,Wunderground v.1.15,2013-10-15 20:50:00,
2013-10-15 16:00:00,55.0,53.6,29.92,NNW,341,9.0,9.0,95,0.04,,,0.72,Wunderground v.1.15,2013-10-15 21:00:00,
2013-10-15 16:10:00,54.8,53.7,29.92,NNW,346,7.0,9.0,96,0.00,,,0.73,Wunderground v.1.15,2013-10-15 21:10:00,
2013-10-15 16:20:00,54.6,53.5,29.92,North,360,9.0,9.0,96,0.07,,,0.74,Wunderground v.1.15,2013-10-15 21:20:00,
2013-10-15 16:30:00,54.6,53.5,29.93,North,350,6.0,8.0,96,0.08,,,0.75,Wunderground v.1.15,2013-10-15 21:30:00,
2013-10-15 16:40:00,54.3,53.2,29.92,NW,312,7.0,7.0,96,0.05,,,0.76,Wunderground v.1.15,2013-10-15 21:40:00,
2013-10-15 16:50:00,54.0,52.9,29.94,North,355,8.0,8.0,96,0.04,,,0.76,Wunderground v.1.15,2013-10-15 21:50:00,
2013-10-15 17:00:00,53.5,52.4,29.93,NNE,31,7.0,13.0,96,0.18,,,0.79,Wunderground v.1.15,2013-10-15 22:00:00,
2013-10-15 17:10:00,53.4,52.3,29.92,North,5,8.0,10.0,96,0.12,,,0.81,Wunderground v.1.15,2013-10-15 22:10:00,
2013-10-15 17:20:00,53.5,52.4,29.93,NNW,333,7.0,13.0,96,0.09,,,0.82,Wunderground v.1.15,2013-10-15 22:20:00,
2013-10-15 17:30:00,53.3,52.2,29.94,NNW,342,8.0,8.0,96,0.04,,,0.83,Wunderground v.1.15,2013-10-15 22:30:00,
2013-10-15 17:40:00,53.1,52.0,29.94,NNE,12,7.0,7.0,96,0.08,,,0.84,Wunderground v.1.15,2013-10-15 22:40:00,
2013-10-15 17:50:00,53.0,51.9,29.95,NNW,346,6.0,6.0,96,0.08,,,0.85,Wunderground v.1.15,2013-10-15 22:50:00,
2013-10-15 18:00:00,52.8,51.7,29.96,NNW,347,6.0,9.0,96,0.04,,,0.86,Wunderground v.1.15,2013-10-15 23:00:00,
2013-10-15 18:10:00,52.9,51.8,29.95,North,350,5.0,7.0,96,0.24,,,0.90,Wunderground v.1.15,2013-10-15 23:10:00,
2013-10-15 18:20:00,52.8,51.7,29.95,NNW,346,5.0,5.0,96,0.12,,,0.92,Wunderground v.1.15,2013-10-15 23:20:00,
2013-10-15 18:30:00,52.5,51.4,29.96,NNW,336,7.0,8.0,96,0.11,,,0.94,Wunderground v.1.15,2013-10-15 23:30:00,
2013-10-15 18:40:00,52.4,51.3,29.96,NW,323,7.0,7.0,96,0.05,,,0.94,Wunderground v.1.15,2013-10-15 23:40:00,
2013-10-15 18:50:00,51.9,50.8,29.98,NNW,342,8.0,8.0,96,0.53,,,0.99,Wunderground v.1.15,2013-10-15 23:50:00,
2013-10-15 19:00:00,51.8,50.7,29.97,NNW,347,6.0,6.0,96,0.17,,,1.03,Wunderground v.1.15,2013-10-16 00:00:00,
2013-10-15 19:10:00,51.9,50.8,29.97,North,5,6.0,6.0,96,0.07,,,1.04,Wunderground v.1.15,2013-10-16 00:10:00,
2013-10-15 19:20:00,51.8,50.7,29.98,North,5,6.0,6.0,96,0.04,,,1.05,Wunderground v.1.15,2013-10-16 00:20:00,
2013-10-15 19:30:00,51.5,50.4,29.98,North,10,5.0,7.0,96,0.20,,,1.08,Wunderground v.1.15,2013-10-16 00:30:00,
2013-10-15 19:40:00,51.3,50.2,29.98,North,360,6.0,6.0,96,0.16,,,1.10,Wunderground v.1.15,2013-10-16 00:40:00,
2013-10-15 19:50:00,51.3,50.2,29.98,North,350,5.0,5.0,96,0.04,,,1.10,Wunderground v.1.15,2013-10-16 00:50:00,
2013-10-15 20:00:00,51.3,50.2,29.98,North,355,6.0,9.0,96,0.11,,,1.12,Wunderground v.1.15,2013-10-16 01:00:00,
2013-10-15 20:10:00,51.3,50.5,29.99,NNW,348,6.0,6.0,97,0.07,,,1.13,Wunderground v.1.15,2013-10-16 01:10:00,
2013-10-15 20:20:00,51.3,50.5,29.98,North,350,4.0,5.0,97,0.06,,,1.14,Wunderground v.1.15,2013-10-16 01:20:00,
2013-10-15 20:30:00,51.3,50.5,29.99,North,349,4.0,4.0,97,0.04,,,1.15,Wunderground v.1.15,2013-10-16 01:30:00,
2013-10-15 20:40:00,51.4,50.6,30.02,WNW,296,4.0,5.0,97,0.61,,,1.20,Wunderground v.1.15,2013-10-16 01:40:00,
2013-10-15 20:50:00,51.2,50.4,30.01,North,351,6.0,10.0,97,0.16,,,1.26,Wunderground v.1.15,2013-10-16 01:50:00,
2013-10-15 21:00:00,51.0,50.2,30.03,NW,325,6.0,6.0,97,0.19,,,1.29,Wunderground v.1.15,2013-10-16 02:00:00,
2013-10-15 21:10:00,50.9,50.1,30.01,North,355,6.0,9.0,97,0.12,,,1.32,Wunderground v.1.15,2013-10-16 02:10:00,
2013-10-15 21:20:00,51.1,50.3,30.01,NNE,13,4.0,4.0,97,0.07,,,1.33,Wunderground v.1.15,2013-10-16 02:20:00,
2013-10-15 21:30:00,51.0,50.2,30.01,NNW,339,5.0,6.0,97,0.05,,,1.33,Wunderground v.1.15,2013-10-16 02:30:00,
2013-10-15 21:40:00,50.8,50.0,30.02,North,350,6.0,6.0,97,0.00,,,1.33,Wunderground v.1.15,2013-10-16 02:40:00,
2013-10-15 21:50:00,50.8,50.0,30.01,North,5,6.0,6.0,97,0.00,,,1.34,Wunderground v.1.15,2013-10-16 02:50:00,
2013-10-15 22:00:00,50.9,50.1,30.01,NNE,12,7.0,8.0,97,0.00,,,1.34,Wunderground v.1.15,2013-10-16 03:00:00,
2013-10-15 22:10:00,50.9,50.1,30.01,NNE,12,7.0,8.0,97,0.00,,,1.34,Wunderground v.1.15,2013-10-16 03:10:00,
2013-10-15 22:20:00,50.9,50.1,30.03,North,5,3.0,3.0,97,0.00,,,1.34,Wunderground v.1.15,2013-10-16 03:20:00,
2013-10-15 22:30:00,51.1,50.3,30.01,North,5,4.0,6.0,97,0.00,,,1.35,Wunderground v.1.15,2013-10-16 03:30:00,
2013-10-15 22:40:00,51.1,50.3,30.01,NNE,19,5.0,5.0,97,0.06,,,1.36,Wunderground v.1.15,2013-10-16 03:40:00,
2013-10-15 22:50:00,51.1,50.3,30.03,NNE,17,4.0,4.0,97,0.00,,,1.36,Wunderground v.1.15,2013-10-16 03:50:00,
2013-10-15 23:00:00,51.2,50.4,30.01,NNE,17,4.0,4.0,97,0.00,,,1.36,Wunderground v.1.15,2013-10-16 04:00:00,
2013-10-15 23:10:00,51.1,50.3,30.02,NNE,17,2.0,10.0,97,0.00,,,1.36,Wunderground v.1.15,2013-10-16 04:10:00,
2013-10-15 23:20:00,51.2,50.4,30.02,NE,36,5.0,5.0,97,0.00,,,1.36,Wunderground v.1.15,2013-10-16 04:20:00,
2013-10-15 23:30:00,51.1,50.0,30.02,NNE,28,5.0,5.0,96,0.00,,,1.36,Wunderground v.1.15,2013-10-16 04:30:00,
2013-10-15 23:40:00,51.1,50.0,30.04,NNE,17,3.0,5.0,96,0.00,,,1.37,Wunderground v.1.15,2013-10-16 04:40:00,
2013-10-15 23:50:00,51.0,49.9,30.01,NNE,15,5.0,5.0,96,0.11,,,1.39,Wunderground v.1.15,2013-10-16 04:50:00,